KFNL Airport (Northern Colorado Rgnl) Information

FAA: FNL - ICAO: KFNL

KFNL Airport Location

State Colorado
County Larimer
City Fort Collins/Loveland
KFNL Airport is 9 miles southeast of Fort Collins/Loveland, CO.
Latitude 40-27-06.5780N
Longitude 105-00-40.8080W
Elevation 5,015ft

KFNL Airport METARs

METAR KFNL 302256Z 31011KT 10SM -RA BKN075 BKN090 OVC100 16/11 A3007 RMK AO2 LTG DSNT SE AND S RAB2157 SLP145 T01560106 PNO $
Altimeter 30.07"
Temperature 15.6°C (60.1°F)
Wind 310° at 11KT
Clouds broken at 7,500ft broken at 9,000ft overcast at 10,000ft
Visibility 10.0mi
Time observed: 2022-09-30T22:56:00Z

KFNL Airport Details

Status Operational
Activation N/A
Ownership Public
Usage Public
Chart CHEYENNE
ATC on-site No
Beacon schedule sunset-sunrise
Beacon color clear green

KFNL Airport Contacts

Owner FORT COLLINS & LOVELAND
Owner address 4900 EARHART ROAD, LOVELAND, CO 80538
Owner phone 970-962-2850
Manager MIKE BOHN
Manager address ORANGE SKIES FREE FALL CENTER, 4625 E COUNTY RD 54, FT COLLINS, CO 80524-9334
Manager phone (720) 879-2573

KFNL Airport (Northern Colorado Rgnl) Radio Frequencies

KFNL (Airport) Radio Frequencies

UNICOM 122.7
Common traffic advisory frequency (CTAF) 122.7